Terminal Aerodrome Forecast
Issued by NWS Louisville, KY

Home | Current Version | Previous Version | Text Only | Print | Product List | Glossary On
Versions: 1 2 3 4 5 6 7 8 9 10 11 12 13 14 15 16 17 18 19 20
409
FTUS43 KLMK 240520
TAFBWG
TAF
KBWG 240520Z 2406/2506 VRB04KT P6SM FEW070 SCT250
     FM240900 VRB03KT 4SM BR SCT250
     FM241200 18006KT P6SM SCT080 BKN250
     FM241800 22010KT P6SM SCT035 BKN250
     FM250100 20004KT P6SM FEW080 BKN250=

USA.gov is the U.S. government's official web portal to all federal, state and local government web resources and services.